Overview Statistics Trail Chart Weather Telemetry Raw packets
 

This is the latest recevied weather packets stored in our database for station/object IU5JAE-13. If no packets are shown the sender has not sent any weather packets the latest 10 day(s).

<< 43 44 45 46 47 48 49 >>
Time Temp. Humidity Pressure Rain* Wind** Luminosity Snow
1788048633 17.22° C 65% 1017.5 hPa 0 mm - 0 W/m² -
1788048031 17.22° C 66% 1017.6 hPa 0 mm - 0 W/m² -
1788047429 17.78° C 63% 1017.5 hPa 0 mm - 0 W/m² -
1788046826 17.22° C 66% 1017.5 hPa 0 mm - 0 W/m² -
1788046224 17.78° C 63% 1017.5 hPa 0 mm - 0 W/m² -
1788045621 17.22° C 64% 1017.5 hPa 0 mm - 0 W/m² -
1788045019 17.78° C 64% 1017.4 hPa 0 mm - 0 W/m² -
1788044417 17.78° C 65% 1017.4 hPa 0 mm - 0 W/m² -
1788043834 18.89° C 58% 1017.4 hPa 0 mm - 0 W/m² -
1788043232 18.33° C 63% 1017.4 hPa 0 mm - 0 W/m² -
1788042640 18.33° C 63% 1017.4 hPa 0 mm - 0 W/m² -
1788042027 18.33° C 62% 1017.4 hPa 0 mm - 0 W/m² -
1788041424 18.33° C 62% 1017.5 hPa 0 mm - 0 W/m² -
1788040822 18.33° C 63% 1017.5 hPa 0 mm - 0 W/m² -
1788040220 18.89° C 62% 1017.6 hPa 0 mm - 0 W/m² -
1788039617 18.89° C 61% 1017.6 hPa 0 mm - 0 W/m² -
1788039035 18.89° C 60% 1017.6 hPa 0 mm - 0 W/m² -
1788038432 19.44° C 61% 1017.6 hPa 0 mm - 0 W/m² -
1788037830 19.44° C 60% 1017.4 hPa 0 mm - 0 W/m² -
1788037228 18.89° C 62% 1017.6 hPa 0 mm - 0 W/m² -
1788036625 18.89° C 64% 1017.4 hPa 0 mm - 0 W/m² -
1788036023 19.44° C 63% 1017.5 hPa 0 mm - 0 W/m² -
1788035421 20° C 59% 1017.6 hPa 0 mm - 0 W/m² -
1788034818 19.44° C 59% 1017.5 hPa 0 mm - 0 W/m² -
1788034216 19.44° C 61% 1017.6 hPa 0 mm - 0 W/m² -

* Rain latest hour (hover to see other rain measurements)
** Current wind speed in m/s (hover to see current wind gust speed)